createdAt,value
2022-08-26T00:00:02.782Z,0.00
2022-08-26T00:01:02.770Z,0.00
2022-08-26T00:02:02.815Z,0.00
2022-08-26T00:03:02.745Z,0.00
2022-08-26T00:04:02.799Z,0.00
2022-08-26T00:05:02.718Z,0.00
2022-08-26T00:06:02.714Z,0.00
2022-08-26T00:07:02.700Z,0.00
2022-08-26T00:08:02.682Z,0.00
2022-08-26T00:09:02.660Z,0.00
2022-08-26T00:10:03.649Z,0.00
2022-08-26T00:11:02.635Z,0.00
2022-08-26T00:12:02.638Z,0.00
2022-08-26T00:13:02.609Z,0.00
2022-08-26T00:14:02.599Z,0.00
2022-08-26T00:15:02.589Z,0.00
2022-08-26T00:16:02.568Z,0.00
2022-08-26T00:17:02.614Z,0.00
2022-08-26T00:18:02.548Z,0.00
2022-08-26T00:19:02.530Z,0.00
2022-08-26T00:20:02.518Z,0.00
2022-08-26T00:21:06.265Z,0.00
2022-08-26T00:22:02.500Z,0.00
2022-08-26T00:23:02.477Z,0.00
2022-08-26T00:24:02.470Z,0.00
2022-08-26T00:25:02.449Z,0.00
2022-08-26T00:26:02.441Z,0.00
2022-08-26T00:27:02.429Z,0.00
2022-08-26T00:28:02.418Z,0.00
2022-08-26T00:29:02.412Z,0.00
2022-08-26T00:30:02.388Z,0.00
2022-08-26T00:31:02.378Z,0.00
2022-08-26T00:32:02.411Z,0.00
2022-08-26T00:33:02.354Z,0.00
2022-08-26T00:34:02.341Z,0.00
2022-08-26T00:35:02.327Z,0.00
2022-08-26T00:36:02.309Z,0.00
2022-08-26T00:37:02.299Z,0.00
2022-08-26T00:38:02.287Z,0.00
2022-08-26T00:39:02.269Z,0.00
2022-08-26T00:40:05.266Z,0.00
2022-08-26T00:41:02.242Z,0.00
2022-08-26T00:42:02.298Z,0.00
2022-08-26T00:43:02.218Z,0.00
2022-08-26T00:44:03.202Z,0.00
2022-08-26T00:45:02.187Z,0.00
2022-08-26T00:46:03.224Z,0.00
2022-08-26T00:47:02.189Z,0.00
2022-08-26T00:48:02.148Z,0.00
2022-08-26T00:49:02.147Z,0.00
2022-08-26T00:50:02.128Z,0.00
2022-08-26T00:51:02.113Z,0.00
2022-08-26T00:52:02.106Z,0.00
2022-08-26T00:53:02.081Z,0.00
2022-08-26T00:54:02.071Z,0.00
2022-08-26T00:55:02.061Z,0.00
2022-08-26T00:56:02.038Z,0.00
2022-08-26T00:57:02.038Z,0.00
2022-08-26T00:58:02.022Z,0.00
2022-08-26T00:59:02.016Z,0.00
2022-08-26T01:00:01.987Z,0.00
2022-08-26T01:01:02.024Z,0.00
2022-08-26T01:02:02.678Z,0.00
2022-08-26T01:03:01.960Z,0.00
2022-08-26T01:04:01.940Z,0.00
2022-08-26T01:05:03.371Z,0.00
2022-08-26T01:06:01.918Z,0.00
2022-08-26T01:07:01.909Z,0.00
2022-08-26T01:08:01.886Z,0.00
2022-08-26T01:09:01.886Z,0.00
2022-08-26T01:10:01.867Z,0.00
2022-08-26T01:11:01.848Z,0.00
2022-08-26T01:12:01.848Z,0.00
2022-08-26T01:13:01.818Z,0.00
2022-08-26T01:14:01.808Z,0.00
2022-08-26T01:15:01.799Z,0.00
2022-08-26T01:16:01.805Z,0.00
2022-08-26T01:17:01.779Z,0.00
2022-08-26T01:18:01.757Z,0.00
2022-08-26T01:19:01.742Z,0.00
2022-08-26T01:20:01.738Z,0.00
2022-08-26T01:21:01.717Z,0.00
2022-08-26T01:22:01.715Z,0.00
2022-08-26T01:23:03.224Z,0.00
2022-08-26T01:24:01.676Z,0.00
2022-08-26T01:25:03.398Z,0.00
2022-08-26T01:26:01.655Z,0.00
2022-08-26T01:27:01.672Z,0.00
2022-08-26T01:28:01.655Z,0.00
2022-08-26T01:29:01.616Z,0.00
2022-08-26T01:30:01.596Z,0.00
2022-08-26T01:31:01.595Z,0.00
2022-08-26T01:32:01.583Z,0.00
2022-08-26T01:33:01.644Z,0.00
2022-08-26T01:34:01.545Z,0.00
2022-08-26T01:35:01.534Z,0.00
2022-08-26T01:36:01.524Z,0.00
2022-08-26T01:37:01.532Z,0.00
2022-08-26T01:38:01.497Z,0.00
2022-08-26T01:39:01.485Z,0.00
2022-08-26T01:40:01.513Z,0.00
2022-08-26T01:41:01.455Z,0.00
2022-08-26T01:42:03.125Z,0.00
2022-08-26T01:43:01.498Z,0.00
2022-08-26T01:44:01.416Z,0.00
2022-08-26T01:45:01.408Z,0.00
2022-08-26T01:46:01.461Z,0.00
2022-08-26T01:47:01.397Z,0.00
2022-08-26T01:48:01.365Z,0.00
2022-08-26T01:49:01.354Z,0.00
2022-08-26T01:50:01.334Z,0.00
2022-08-26T01:51:01.332Z,0.00
2022-08-26T01:52:01.326Z,0.00
2022-08-26T01:53:01.294Z,0.00
2022-08-26T01:54:01.275Z,0.00
2022-08-26T01:55:01.274Z,0.00
2022-08-26T01:56:01.258Z,0.00
2022-08-26T01:57:01.254Z,0.00
2022-08-26T01:58:01.233Z,0.00
2022-08-26T01:59:01.214Z,0.00
2022-08-26T02:00:01.203Z,0.00
2022-08-26T02:01:01.217Z,0.00
2022-08-26T02:02:01.194Z,0.00
2022-08-26T02:03:01.225Z,0.00
2022-08-26T02:04:22.191Z,0.00
2022-08-26T02:05:01.153Z,0.00
2022-08-26T02:06:01.134Z,0.00
2022-08-26T02:07:01.124Z,0.00
2022-08-26T02:08:01.106Z,0.00
2022-08-26T02:09:01.088Z,0.00
2022-08-26T02:10:01.072Z,0.00
2022-08-26T02:11:01.074Z,0.00
2022-08-26T02:12:01.070Z,0.00
2022-08-26T02:13:01.091Z,0.00
2022-08-26T02:14:01.014Z,0.00
2022-08-26T02:15:01.007Z,0.00
2022-08-26T02:16:01.020Z,0.00
2022-08-26T02:17:00.983Z,0.00
2022-08-26T02:18:00.972Z,0.00
2022-08-26T02:19:00.964Z,0.00
2022-08-26T02:20:00.943Z,0.00
2022-08-26T02:21:00.926Z,0.00
2022-08-26T02:22:00.918Z,0.00
2022-08-26T02:23:00.961Z,0.00
2022-08-26T02:24:00.904Z,0.00
2022-08-26T02:25:00.883Z,0.00
2022-08-26T02:26:00.866Z,0.00
2022-08-26T02:27:00.852Z,0.00
2022-08-26T02:28:00.874Z,0.00
2022-08-26T02:29:00.832Z,0.00
2022-08-26T02:30:00.832Z,0.00
2022-08-26T02:31:00.794Z,0.00
2022-08-26T02:32:00.790Z,0.00
2022-08-26T02:33:00.767Z,0.00
2022-08-26T02:34:00.752Z,0.00
2022-08-26T02:35:00.751Z,0.00
2022-08-26T02:36:00.743Z,0.00
2022-08-26T02:37:00.728Z,0.00
2022-08-26T02:38:00.727Z,0.00
2022-08-26T02:39:00.700Z,0.00
2022-08-26T02:40:00.709Z,0.00
2022-08-26T02:41:00.664Z,0.00
2022-08-26T02:42:00.661Z,0.00
2022-08-26T02:43:00.631Z,0.00
2022-08-26T02:44:00.629Z,0.00
2022-08-26T02:45:00.611Z,0.00
2022-08-26T02:46:02.185Z,0.00
2022-08-26T02:47:00.622Z,0.00
2022-08-26T02:48:00.583Z,0.00
2022-08-26T02:49:00.572Z,0.00
2022-08-26T02:50:00.553Z,0.00
2022-08-26T02:51:00.544Z,0.00
2022-08-26T02:52:00.529Z,0.00
2022-08-26T02:53:00.547Z,0.00
2022-08-26T02:54:00.491Z,0.00
2022-08-26T02:55:00.482Z,0.00
2022-08-26T02:56:00.469Z,0.00
2022-08-26T02:57:00.465Z,0.00
2022-08-26T02:58:00.448Z,0.00
2022-08-26T02:59:00.881Z,0.00
2022-08-26T03:00:00.415Z,0.00
2022-08-26T03:01:00.451Z,0.00
2022-08-26T03:02:00.477Z,0.00
2022-08-26T03:03:00.379Z,0.00
2022-08-26T03:04:00.369Z,0.00
2022-08-26T03:05:01.898Z,0.00
2022-08-26T03:06:00.339Z,0.00
2022-08-26T03:07:00.335Z,0.00
2022-08-26T03:08:00.326Z,0.00
2022-08-26T03:09:00.306Z,0.00
2022-08-26T03:10:00.283Z,0.00
2022-08-26T03:11:01.683Z,0.00
2022-08-26T03:12:00.261Z,0.00
2022-08-26T03:13:00.250Z,0.00
2022-08-26T03:14:01.853Z,0.00
2022-08-26T03:15:00.218Z,0.00
2022-08-26T03:16:00.219Z,0.00
2022-08-26T03:17:00.218Z,0.00
2022-08-26T03:18:00.179Z,0.00
2022-08-26T03:19:00.177Z,0.00
2022-08-26T03:20:00.165Z,0.00
2022-08-26T03:21:00.152Z,0.00
2022-08-26T03:22:00.119Z,0.00
2022-08-26T03:23:00.130Z,0.00
2022-08-26T03:24:00.415Z,0.00
2022-08-26T03:25:00.088Z,0.00
2022-08-26T03:26:00.087Z,0.00
2022-08-26T03:27:00.060Z,0.00
2022-08-26T03:28:01.068Z,0.00
2022-08-26T03:29:00.045Z,0.00
2022-08-26T03:30:00.051Z,0.00
2022-08-26T03:31:00.066Z,0.00
2022-08-26T03:31:59.989Z,0.00
2022-08-26T03:32:59.988Z,0.00
2022-08-26T03:33:59.995Z,0.00
2022-08-26T03:34:59.947Z,0.00
2022-08-26T03:35:59.939Z,0.00
2022-08-26T03:36:59.937Z,0.00
2022-08-26T03:37:59.917Z,0.00
2022-08-26T03:38:59.908Z,0.00
2022-08-26T03:39:59.995Z,0.00
2022-08-26T03:40:59.888Z,0.00
2022-08-26T03:41:59.868Z,0.00
2022-08-26T03:42:59.847Z,0.00
2022-08-26T03:44:01.806Z,0.00
2022-08-26T03:44:59.838Z,0.00
2022-08-26T03:45:59.818Z,0.00
2022-08-26T03:46:59.805Z,0.00
2022-08-26T03:47:59.777Z,0.00
2022-08-26T03:48:59.777Z,0.00
2022-08-26T03:49:59.756Z,0.00
2022-08-26T03:50:59.768Z,0.00
2022-08-26T03:51:59.743Z,0.00
2022-08-26T03:52:59.706Z,0.00
2022-08-26T03:53:59.709Z,0.00
2022-08-26T03:54:59.694Z,0.00
2022-08-26T03:55:59.693Z,0.00
2022-08-26T03:56:59.676Z,0.00
2022-08-26T03:57:59.672Z,0.00
2022-08-26T03:58:59.653Z,0.00
2022-08-26T03:59:59.625Z,0.00
2022-08-26T04:00:59.827Z,0.00
2022-08-26T04:01:59.669Z,0.00
2022-08-26T04:02:59.634Z,0.00
2022-08-26T04:04:00.424Z,0.00
2022-08-26T04:04:59.566Z,0.00
2022-08-26T04:05:59.547Z,0.00
2022-08-26T04:06:59.554Z,0.00
2022-08-26T04:07:59.525Z,0.00
2022-08-26T04:08:59.505Z,0.00
2022-08-26T04:09:59.485Z,0.00
2022-08-26T04:10:59.485Z,0.00
2022-08-26T04:11:59.500Z,0.00
2022-08-26T04:12:59.498Z,4.00
2022-08-26T04:13:59.434Z,4.00
2022-08-26T04:14:59.434Z,0.00
2022-08-26T04:15:59.453Z,0.00
2022-08-26T04:16:59.419Z,0.00
2022-08-26T04:17:59.405Z,4.00
2022-08-26T04:18:59.383Z,4.00
2022-08-26T04:19:59.364Z,0.00
2022-08-26T04:20:59.363Z,4.00
2022-08-26T04:21:59.332Z,4.00
2022-08-26T04:22:59.335Z,4.00
2022-08-26T04:23:59.303Z,8.00
2022-08-26T04:24:59.294Z,8.00
2022-08-26T04:25:59.283Z,4.00
2022-08-26T04:26:59.274Z,4.00
2022-08-26T04:27:59.255Z,8.00
2022-08-26T04:28:59.263Z,8.00
2022-08-26T04:29:59.223Z,8.00
2022-08-26T04:30:59.257Z,4.00
2022-08-26T04:31:59.204Z,4.00
2022-08-26T04:32:59.183Z,8.00
2022-08-26T04:33:59.202Z,8.00
2022-08-26T04:34:59.171Z,4.00
2022-08-26T04:35:59.154Z,8.00
2022-08-26T04:36:59.141Z,8.00
2022-08-26T04:37:59.123Z,8.00
2022-08-26T04:38:59.124Z,8.00
2022-08-26T04:39:59.129Z,12.00
2022-08-26T04:40:59.096Z,8.00
2022-08-26T04:41:59.081Z,12.00
2022-08-26T04:42:59.062Z,12.00
2022-08-26T04:43:59.043Z,12.00
2022-08-26T04:44:59.041Z,12.00
2022-08-26T04:45:59.083Z,12.00
2022-08-26T04:46:59.012Z,16.00
2022-08-26T04:47:58.994Z,12.00
2022-08-26T04:48:58.997Z,16.00
2022-08-26T04:49:58.982Z,16.00
2022-08-26T04:50:58.952Z,16.00
2022-08-26T04:51:58.942Z,16.00
2022-08-26T04:52:58.935Z,20.00
2022-08-26T04:53:58.911Z,16.00
2022-08-26T04:54:58.904Z,16.00
2022-08-26T04:55:58.903Z,16.00
2022-08-26T04:56:58.881Z,24.00
2022-08-26T04:57:58.861Z,20.00
2022-08-26T04:58:58.860Z,24.00
2022-08-26T04:59:58.836Z,24.00
2022-08-26T05:00:58.843Z,28.00
2022-08-26T05:01:58.885Z,32.00
2022-08-26T05:02:58.791Z,36.00
2022-08-26T05:03:58.798Z,36.00
2022-08-26T05:04:58.788Z,40.00
2022-08-26T05:05:58.755Z,40.00
2022-08-26T05:07:02.825Z,40.00
2022-08-26T05:07:58.729Z,40.00
2022-08-26T05:08:58.722Z,40.00
2022-08-26T05:09:58.713Z,44.00
2022-08-26T05:10:58.700Z,48.00
2022-08-26T05:11:58.696Z,48.00
2022-08-26T05:12:58.670Z,52.00
2022-08-26T05:14:02.112Z,52.00
2022-08-26T05:14:58.641Z,56.00
2022-08-26T05:16:01.226Z,56.00
2022-08-26T05:16:58.619Z,56.00
2022-08-26T05:17:58.609Z,56.00
2022-08-26T05:18:58.592Z,60.00
2022-08-26T05:19:58.569Z,60.00
2022-08-26T05:20:58.559Z,60.00
2022-08-26T05:21:58.539Z,56.00
2022-08-26T05:22:58.567Z,64.00
2022-08-26T05:23:58.520Z,68.00
2022-08-26T05:24:58.519Z,72.00
2022-08-26T05:25:59.446Z,80.00
2022-08-26T05:26:58.488Z,84.00
2022-08-26T05:27:58.468Z,88.00
2022-08-26T05:28:59.019Z,88.00
2022-08-26T05:29:58.450Z,96.00
2022-08-26T05:30:58.462Z,92.00
2022-08-26T05:31:58.419Z,96.00
2022-08-26T05:32:58.410Z,104.00
2022-08-26T05:33:58.399Z,112.00
2022-08-26T05:34:58.625Z,108.00
2022-08-26T05:35:58.359Z,112.00
2022-08-26T05:36:58.356Z,116.00
2022-08-26T05:37:58.338Z,116.00
2022-08-26T05:38:58.341Z,116.00
2022-08-26T05:39:58.346Z,120.00
2022-08-26T05:40:58.300Z,128.00
2022-08-26T05:41:58.278Z,140.00
2022-08-26T05:42:58.276Z,140.00
2022-08-26T05:43:58.279Z,140.00
2022-08-26T05:44:58.247Z,144.00
2022-08-26T05:45:58.299Z,156.00
2022-08-26T05:46:58.218Z,156.00
2022-08-26T05:47:58.209Z,164.00
2022-08-26T05:48:58.226Z,172.00
2022-08-26T05:49:58.178Z,172.00
2022-08-26T05:50:58.166Z,168.00
2022-08-26T05:51:58.156Z,180.00
2022-08-26T05:52:58.138Z,192.00
2022-08-26T05:53:58.237Z,192.00
2022-08-26T05:54:58.119Z,192.00
2022-08-26T05:55:58.200Z,196.00
2022-08-26T05:56:58.098Z,200.00
2022-08-26T05:57:58.070Z,200.00
2022-08-26T05:58:58.396Z,192.00
2022-08-26T05:59:58.057Z,200.00
2022-08-26T06:00:58.027Z,204.00
2022-08-26T06:01:58.041Z,208.00
2022-08-26T06:02:58.059Z,212.00
2022-08-26T06:03:57.995Z,216.00
2022-08-26T06:04:57.996Z,224.00
2022-08-26T06:05:57.964Z,232.00
2022-08-26T06:06:57.959Z,232.00
2022-08-26T06:07:57.944Z,244.00
2022-08-26T06:08:57.943Z,264.00
2022-08-26T06:10:21.330Z,260.00
2022-08-26T06:10:58.897Z,244.00
2022-08-26T06:11:57.886Z,232.00
2022-08-26T06:12:57.889Z,228.00
2022-08-26T06:14:01.349Z,240.00
2022-08-26T06:14:58.887Z,244.00
2022-08-26T06:15:57.895Z,228.00
2022-08-26T06:16:57.827Z,216.00
2022-08-26T06:17:57.805Z,212.00
2022-08-26T06:18:57.804Z,212.00
2022-08-26T06:19:57.775Z,220.00
2022-08-26T06:20:58.421Z,228.00
2022-08-26T06:21:57.755Z,244.00
2022-08-26T06:22:57.745Z,256.00
2022-08-26T06:23:57.736Z,268.00
2022-08-26T06:24:57.715Z,272.00
2022-08-26T06:25:57.715Z,260.00
2022-08-26T06:26:57.694Z,244.00
2022-08-26T06:27:57.684Z,244.00
2022-08-26T06:28:57.669Z,260.00
2022-08-26T06:29:57.645Z,276.00
2022-08-26T06:30:57.680Z,284.00
2022-08-26T06:31:57.634Z,284.00
2022-08-26T06:32:57.625Z,292.00
2022-08-26T06:33:57.594Z,296.00
2022-08-26T06:34:57.584Z,300.00
2022-08-26T06:35:57.574Z,308.00
2022-08-26T06:36:57.578Z,324.00
2022-08-26T06:37:57.554Z,336.00
2022-08-26T06:38:57.534Z,328.00
2022-08-26T06:39:57.650Z,332.00
2022-08-26T06:40:59.698Z,340.00
2022-08-26T06:41:57.485Z,344.00
2022-08-26T06:42:57.494Z,340.00
2022-08-26T06:43:57.471Z,344.00
2022-08-26T06:44:57.454Z,356.00
2022-08-26T06:45:57.477Z,380.00
2022-08-26T06:46:57.426Z,388.00
2022-08-26T06:47:57.423Z,400.00
2022-08-26T06:48:57.403Z,432.00
2022-08-26T06:49:57.393Z,464.00
2022-08-26T06:50:57.384Z,444.00
2022-08-26T06:51:57.373Z,404.00
2022-08-26T06:52:57.373Z,388.00
2022-08-26T06:53:57.344Z,388.00
2022-08-26T06:54:57.322Z,384.00
2022-08-26T06:55:57.312Z,380.00
2022-08-26T06:56:57.305Z,368.00
2022-08-26T06:57:57.294Z,372.00
2022-08-26T06:58:57.283Z,400.00
2022-08-26T06:59:57.263Z,424.00
2022-08-26T07:01:01.982Z,412.00
2022-08-26T07:01:58.258Z,376.00
2022-08-26T07:02:57.269Z,352.00
2022-08-26T07:03:57.230Z,356.00
2022-08-26T07:04:57.192Z,364.00
2022-08-26T07:05:57.184Z,372.00
2022-08-26T07:06:57.461Z,372.00
2022-08-26T07:07:57.154Z,372.00
2022-08-26T07:08:57.164Z,380.00
2022-08-26T07:09:57.141Z,388.00
2022-08-26T07:10:57.125Z,380.00
2022-08-26T07:11:57.119Z,380.00
2022-08-26T07:12:57.089Z,388.00
2022-08-26T07:13:57.082Z,392.00
2022-08-26T07:14:57.069Z,396.00
2022-08-26T07:15:57.265Z,400.00
2022-08-26T07:16:57.031Z,412.00
2022-08-26T07:17:57.031Z,436.00
2022-08-26T07:18:57.001Z,464.00
2022-08-26T07:19:57.013Z,480.00
2022-08-26T07:20:56.972Z,500.00
2022-08-26T07:21:56.971Z,516.00
2022-08-26T07:22:56.952Z,544.00
2022-08-26T07:24:00.546Z,564.00
2022-08-26T07:24:56.926Z,572.00
2022-08-26T07:25:56.942Z,552.00
2022-08-26T07:26:56.901Z,552.00
2022-08-26T07:27:56.890Z,556.00
2022-08-26T07:28:56.871Z,552.00
2022-08-26T07:29:56.865Z,548.00
2022-08-26T07:30:56.920Z,548.00
2022-08-26T07:31:56.906Z,548.00
2022-08-26T07:32:56.820Z,544.00
2022-08-26T07:33:56.832Z,552.00
2022-08-26T07:34:56.791Z,548.00
2022-08-26T07:35:56.793Z,524.00
2022-08-26T07:36:56.814Z,500.00
2022-08-26T07:37:57.254Z,484.00
2022-08-26T07:38:56.739Z,488.00
2022-08-26T07:39:56.781Z,508.00
2022-08-26T07:40:56.711Z,532.00
2022-08-26T07:41:56.740Z,552.00
2022-08-26T07:42:56.690Z,564.00
2022-08-26T07:43:56.688Z,564.00
2022-08-26T07:44:56.669Z,564.00
2022-08-26T07:45:56.681Z,568.00
2022-08-26T07:46:56.642Z,588.00
2022-08-26T07:47:56.670Z,596.00
2022-08-26T07:48:56.609Z,588.00
2022-08-26T07:49:56.608Z,580.00
2022-08-26T07:50:56.591Z,604.00
2022-08-26T07:51:56.580Z,656.00
2022-08-26T07:52:56.577Z,692.00
2022-08-26T07:53:56.548Z,668.00
2022-08-26T07:54:56.587Z,632.00
2022-08-26T07:55:56.529Z,612.00
2022-08-26T07:56:56.509Z,608.00
2022-08-26T07:57:56.520Z,604.00
2022-08-26T07:58:56.482Z,592.00
2022-08-26T07:59:56.675Z,584.00
2022-08-26T08:00:56.460Z,588.00
2022-08-26T08:01:56.478Z,580.00
2022-08-26T08:02:56.454Z,560.00
2022-08-26T08:03:56.438Z,548.00
2022-08-26T08:04:56.452Z,532.00
2022-08-26T08:05:56.389Z,516.00
2022-08-26T08:06:56.374Z,488.00
2022-08-26T08:08:00.869Z,464.00
2022-08-26T08:08:57.359Z,452.00
2022-08-26T08:09:56.339Z,456.00
2022-08-26T08:10:56.329Z,464.00
2022-08-26T08:11:56.322Z,464.00
2022-08-26T08:12:56.331Z,472.00
2022-08-26T08:13:56.899Z,492.00
2022-08-26T08:14:56.278Z,524.00
2022-08-26T08:15:56.258Z,552.00
2022-08-26T08:16:56.308Z,572.00
2022-08-26T08:17:58.845Z,580.00
2022-08-26T08:18:56.225Z,572.00
2022-08-26T08:19:56.228Z,540.00
2022-08-26T08:21:10.808Z,508.00
2022-08-26T08:21:57.178Z,472.00
2022-08-26T08:22:56.174Z,440.00
2022-08-26T08:23:56.149Z,412.00
2022-08-26T08:24:56.180Z,400.00
2022-08-26T08:25:56.128Z,392.00
2022-08-26T08:26:56.178Z,392.00
2022-08-26T08:27:56.106Z,400.00
2022-08-26T08:28:56.098Z,412.00
2022-08-26T08:29:56.071Z,416.00
2022-08-26T08:30:56.120Z,420.00
2022-08-26T08:31:58.469Z,432.00
2022-08-26T08:32:56.037Z,452.00
2022-08-26T08:33:56.025Z,468.00
2022-08-26T08:34:56.019Z,484.00
2022-08-26T08:35:56.017Z,496.00
2022-08-26T08:36:55.987Z,508.00
2022-08-26T08:37:56.006Z,508.00
2022-08-26T08:38:55.965Z,500.00
2022-08-26T08:39:55.980Z,492.00
2022-08-26T08:40:55.938Z,492.00
2022-08-26T08:41:55.928Z,496.00
2022-08-26T08:42:55.920Z,500.00
2022-08-26T08:43:55.896Z,496.00
2022-08-26T08:44:55.885Z,484.00
2022-08-26T08:45:55.977Z,468.00
2022-08-26T08:46:55.864Z,452.00
2022-08-26T08:47:55.837Z,436.00
2022-08-26T08:48:55.836Z,420.00
2022-08-26T08:49:55.835Z,412.00
2022-08-26T08:50:55.815Z,408.00
2022-08-26T08:51:55.824Z,408.00
2022-08-26T08:52:55.803Z,404.00
2022-08-26T08:53:55.757Z,404.00
2022-08-26T08:54:55.761Z,408.00
2022-08-26T08:55:55.734Z,408.00
2022-08-26T08:56:55.723Z,408.00
2022-08-26T08:57:55.717Z,412.00
2022-08-26T08:58:57.018Z,416.00
2022-08-26T08:59:55.675Z,428.00
2022-08-26T09:00:55.742Z,436.00
2022-08-26T09:01:55.658Z,448.00
2022-08-26T09:02:55.655Z,460.00
2022-08-26T09:03:55.633Z,468.00
2022-08-26T09:04:55.623Z,476.00
2022-08-26T09:05:55.606Z,472.00
2022-08-26T09:06:55.603Z,476.00
2022-08-26T09:07:55.575Z,484.00
2022-08-26T09:08:55.575Z,500.00
2022-08-26T09:09:55.556Z,520.00
2022-08-26T09:10:55.544Z,536.00
2022-08-26T09:11:55.524Z,548.00
2022-08-26T09:12:55.526Z,548.00
2022-08-26T09:13:55.524Z,544.00
2022-08-26T09:14:55.495Z,548.00
2022-08-26T09:15:55.474Z,548.00
2022-08-26T09:16:55.487Z,552.00
2022-08-26T09:17:55.454Z,548.00
2022-08-26T09:18:55.442Z,540.00
2022-08-26T09:19:55.436Z,536.00
2022-08-26T09:20:55.415Z,524.00
2022-08-26T09:21:55.395Z,516.00
2022-08-26T09:22:55.385Z,512.00
2022-08-26T09:23:55.382Z,508.00
2022-08-26T09:24:55.373Z,516.00
2022-08-26T09:25:55.353Z,520.00
2022-08-26T09:26:55.345Z,520.00
2022-08-26T09:27:55.314Z,512.00
2022-08-26T09:28:55.305Z,508.00
2022-08-26T09:29:55.294Z,496.00
2022-08-26T09:30:55.389Z,496.00
2022-08-26T09:31:55.264Z,504.00
2022-08-26T09:32:55.906Z,516.00
2022-08-26T09:33:55.235Z,536.00
2022-08-26T09:34:55.245Z,548.00
2022-08-26T09:35:55.231Z,552.00
2022-08-26T09:36:55.203Z,548.00
2022-08-26T09:37:55.187Z,544.00
2022-08-26T09:38:55.178Z,536.00
2022-08-26T09:39:55.225Z,532.00
2022-08-26T09:40:56.233Z,532.00
2022-08-26T09:41:55.144Z,540.00
2022-08-26T09:42:55.123Z,556.00
2022-08-26T09:43:55.104Z,576.00
2022-08-26T09:44:55.108Z,596.00
2022-08-26T09:45:59.082Z,612.00
2022-08-26T09:46:55.103Z,636.00
2022-08-26T09:47:55.053Z,664.00
2022-08-26T09:48:55.043Z,700.00
2022-08-26T09:49:55.032Z,728.00
2022-08-26T09:50:55.024Z,760.00
2022-08-26T09:51:55.005Z,796.00
2022-08-26T09:52:55.042Z,844.00
2022-08-26T09:53:54.984Z,892.00
2022-08-26T09:54:54.963Z,936.00
2022-08-26T09:55:54.960Z,972.00
2022-08-26T09:56:54.943Z,992.00
2022-08-26T09:57:54.946Z,992.00
2022-08-26T09:58:54.906Z,1004.00
2022-08-26T09:59:54.902Z,1016.00
2022-08-26T10:00:54.923Z,1016.00
2022-08-26T10:01:54.954Z,976.00
2022-08-26T10:02:57.971Z,940.00
2022-08-26T10:03:54.887Z,912.00
2022-08-26T10:04:54.830Z,900.00
2022-08-26T10:05:54.912Z,908.00
2022-08-26T10:06:54.882Z,908.00
2022-08-26T10:07:54.880Z,896.00
2022-08-26T10:08:54.894Z,880.00
2022-08-26T10:09:54.864Z,880.00
2022-08-26T10:10:54.761Z,904.00
2022-08-26T10:11:54.741Z,968.00
2022-08-26T10:12:54.724Z,1024.00
2022-08-26T10:13:54.723Z,1048.00
2022-08-26T10:14:54.713Z,1024.00
2022-08-26T10:15:54.694Z,1004.00
2022-08-26T10:16:54.712Z,1000.00
2022-08-26T10:17:54.665Z,1028.00
2022-08-26T10:18:59.838Z,1052.00
2022-08-26T10:19:57.604Z,1052.00
2022-08-26T10:20:54.622Z,984.00
2022-08-26T10:21:54.619Z,924.00
2022-08-26T10:22:54.592Z,896.00
2022-08-26T10:23:54.584Z,892.00
2022-08-26T10:24:55.296Z,880.00
2022-08-26T10:25:57.948Z,864.00
2022-08-26T10:26:54.550Z,840.00
2022-08-26T10:27:54.531Z,828.00
2022-08-26T10:28:54.512Z,796.00
2022-08-26T10:29:54.501Z,764.00
2022-08-26T10:30:54.510Z,740.00
2022-08-26T10:31:54.511Z,720.00
2022-08-26T10:32:54.474Z,704.00
2022-08-26T10:33:58.657Z,684.00
2022-08-26T10:34:55.442Z,664.00
2022-08-26T10:35:54.442Z,660.00
2022-08-26T10:37:13.810Z,668.00
2022-08-26T10:37:55.410Z,692.00
2022-08-26T10:38:54.397Z,700.00
2022-08-26T10:39:58.549Z,680.00
2022-08-26T10:40:54.362Z,656.00
2022-08-26T10:41:54.383Z,628.00
2022-08-26T10:42:54.348Z,600.00
2022-08-26T10:43:54.321Z,576.00
2022-08-26T10:44:54.309Z,544.00
2022-08-26T10:45:54.344Z,520.00
2022-08-26T10:46:54.281Z,504.00
2022-08-26T10:47:54.293Z,496.00
2022-08-26T10:48:54.252Z,488.00
2022-08-26T10:49:58.702Z,480.00
2022-08-26T10:50:55.233Z,484.00
2022-08-26T10:51:54.222Z,496.00
2022-08-26T10:52:54.228Z,508.00
2022-08-26T10:53:54.216Z,504.00
2022-08-26T10:54:54.189Z,496.00
2022-08-26T10:55:54.180Z,492.00
2022-08-26T10:56:54.151Z,492.00
2022-08-26T10:57:54.162Z,508.00
2022-08-26T10:58:54.150Z,540.00
2022-08-26T10:59:54.145Z,580.00
2022-08-26T11:00:54.152Z,612.00
2022-08-26T11:01:54.090Z,628.00
2022-08-26T11:02:54.082Z,632.00
2022-08-26T11:03:54.141Z,656.00
2022-08-26T11:04:54.050Z,700.00
2022-08-26T11:05:54.050Z,712.00
2022-08-26T11:06:54.028Z,704.00
2022-08-26T11:07:54.010Z,704.00
2022-08-26T11:08:54.001Z,728.00
2022-08-26T11:09:54.002Z,772.00
2022-08-26T11:10:53.980Z,808.00
2022-08-26T11:11:53.965Z,828.00
2022-08-26T11:12:53.953Z,840.00
2022-08-26T11:13:53.940Z,856.00
2022-08-26T11:14:59.218Z,872.00
2022-08-26T11:15:54.913Z,888.00
2022-08-26T11:16:53.951Z,908.00
2022-08-26T11:17:53.890Z,920.00
2022-08-26T11:18:53.870Z,920.00
2022-08-26T11:20:03.869Z,904.00
2022-08-26T11:20:54.873Z,880.00
2022-08-26T11:21:53.832Z,852.00
2022-08-26T11:22:53.825Z,820.00
2022-08-26T11:23:53.810Z,792.00
2022-08-26T11:24:53.799Z,772.00
2022-08-26T11:25:53.809Z,760.00
2022-08-26T11:26:56.355Z,756.00
2022-08-26T11:27:53.783Z,756.00
2022-08-26T11:28:53.739Z,760.00
2022-08-26T11:29:53.731Z,776.00
2022-08-26T11:30:58.067Z,796.00
2022-08-26T11:31:53.796Z,828.00
2022-08-26T11:32:53.691Z,864.00
2022-08-26T11:33:54.234Z,896.00
2022-08-26T11:34:53.670Z,932.00
2022-08-26T11:35:53.668Z,956.00
2022-08-26T11:36:53.650Z,952.00
2022-08-26T11:37:53.642Z,940.00
2022-08-26T11:38:53.618Z,928.00
2022-08-26T11:39:55.401Z,924.00
2022-08-26T11:40:53.611Z,948.00
2022-08-26T11:41:53.578Z,976.00
2022-08-26T11:42:53.579Z,1000.00
2022-08-26T11:43:53.563Z,1008.00
2022-08-26T11:44:53.538Z,1012.00
2022-08-26T11:45:53.546Z,1012.00
2022-08-26T11:46:53.568Z,1024.00
2022-08-26T11:47:53.538Z,1048.00
2022-08-26T11:48:53.479Z,1056.00
2022-08-26T11:49:53.488Z,1044.00
2022-08-26T11:50:53.459Z,1012.00
2022-08-26T11:51:53.448Z,968.00
2022-08-26T11:52:53.437Z,916.00
2022-08-26T11:53:53.448Z,868.00
2022-08-26T11:54:53.409Z,836.00
2022-08-26T11:55:53.403Z,812.00
2022-08-26T11:56:53.379Z,796.00
2022-08-26T11:57:53.378Z,776.00
2022-08-26T11:58:53.371Z,760.00
2022-08-26T11:59:53.350Z,740.00
2022-08-26T12:00:53.330Z,728.00
2022-08-26T12:01:53.356Z,736.00
2022-08-26T12:02:53.464Z,728.00
2022-08-26T12:03:53.350Z,732.00
2022-08-26T12:04:53.287Z,752.00
2022-08-26T12:05:53.276Z,764.00
2022-08-26T12:06:53.252Z,752.00
2022-08-26T12:07:53.238Z,736.00
2022-08-26T12:08:53.228Z,696.00
2022-08-26T12:09:53.257Z,656.00
2022-08-26T12:10:53.199Z,624.00
2022-08-26T12:11:53.198Z,608.00
2022-08-26T12:12:53.188Z,604.00
2022-08-26T12:13:53.158Z,616.00
2022-08-26T12:14:53.149Z,620.00
2022-08-26T12:15:53.158Z,632.00
2022-08-26T12:16:53.160Z,652.00
2022-08-26T12:17:54.462Z,676.00
2022-08-26T12:18:53.093Z,704.00
2022-08-26T12:19:53.087Z,720.00
2022-08-26T12:20:53.088Z,728.00
2022-08-26T12:21:53.068Z,736.00
2022-08-26T12:22:53.045Z,752.00
2022-08-26T12:23:53.030Z,776.00
2022-08-26T12:24:53.025Z,812.00
2022-08-26T12:25:53.007Z,840.00
2022-08-26T12:26:53.040Z,868.00
2022-08-26T12:27:54.068Z,884.00
2022-08-26T12:28:52.966Z,896.00
2022-08-26T12:29:52.949Z,904.00
2022-08-26T12:30:52.947Z,912.00
2022-08-26T12:31:52.973Z,904.00
2022-08-26T12:32:58.869Z,888.00
2022-08-26T12:33:53.947Z,884.00
2022-08-26T12:34:52.939Z,900.00
2022-08-26T12:35:56.567Z,924.00
2022-08-26T12:36:52.935Z,944.00
2022-08-26T12:37:52.867Z,972.00
2022-08-26T12:38:54.535Z,964.00
2022-08-26T12:39:52.874Z,964.00
2022-08-26T12:40:52.826Z,972.00
2022-08-26T12:41:52.797Z,968.00
2022-08-26T12:42:52.807Z,948.00
2022-08-26T12:43:52.778Z,936.00
2022-08-26T12:44:54.019Z,948.00
2022-08-26T12:45:52.782Z,952.00
2022-08-26T12:46:52.741Z,948.00